createdAt,value
2018-11-28T00:00:31.355Z,0.00
2018-11-28T00:01:31.396Z,0.00
2018-11-28T00:02:31.372Z,0.00
2018-11-28T00:03:31.285Z,0.00
2018-11-28T00:04:31.273Z,0.00
2018-11-28T00:05:31.241Z,0.00
2018-11-28T00:06:31.227Z,0.00
2018-11-28T00:07:31.222Z,0.00
2018-11-28T00:08:31.177Z,0.00
2018-11-28T00:09:31.226Z,0.00
2018-11-28T00:10:31.135Z,0.00
2018-11-28T00:11:31.099Z,0.00
2018-11-28T00:12:31.096Z,0.00
2018-11-28T00:13:31.062Z,0.00
2018-11-28T00:14:31.034Z,0.00
2018-11-28T00:15:31.016Z,0.00
2018-11-28T00:16:30.983Z,0.00
2018-11-28T00:17:30.972Z,0.00
2018-11-28T00:18:30.940Z,0.00
2018-11-28T00:19:30.936Z,0.00
2018-11-28T00:20:30.892Z,0.00
2018-11-28T00:21:30.871Z,0.00
2018-11-28T00:22:30.858Z,0.00
2018-11-28T00:23:30.834Z,0.00
2018-11-28T00:24:30.797Z,0.00
2018-11-28T00:25:30.775Z,0.00
2018-11-28T00:26:30.761Z,0.00
2018-11-28T00:27:30.731Z,0.00
2018-11-28T00:28:30.727Z,0.00
2018-11-28T00:29:30.697Z,0.00
2018-11-28T00:30:30.670Z,0.00
2018-11-28T00:31:30.652Z,0.00
2018-11-28T00:32:30.617Z,0.00
2018-11-28T00:33:30.594Z,0.00
2018-11-28T00:34:30.586Z,0.00
2018-11-28T00:35:30.566Z,0.00
2018-11-28T00:36:30.535Z,0.00
2018-11-28T00:37:30.502Z,0.00
2018-11-28T00:38:30.474Z,0.00
2018-11-28T00:39:30.472Z,0.00
2018-11-28T00:40:30.448Z,0.00
2018-11-28T00:41:30.416Z,0.00
2018-11-28T00:42:30.382Z,0.00
2018-11-28T00:43:30.379Z,0.00
2018-11-28T00:44:30.344Z,0.00
2018-11-28T00:45:30.647Z,0.00
2018-11-28T00:46:30.315Z,0.00
2018-11-28T00:47:30.299Z,0.00
2018-11-28T00:48:30.248Z,0.00
2018-11-28T00:49:30.238Z,0.00
2018-11-28T00:50:30.223Z,0.00
2018-11-28T00:51:30.174Z,0.00
2018-11-28T00:52:30.158Z,0.00
2018-11-28T00:53:30.171Z,0.00
2018-11-28T00:54:30.110Z,0.00
2018-11-28T00:55:30.087Z,0.00
2018-11-28T00:56:30.079Z,0.00
2018-11-28T00:57:30.038Z,0.00
2018-11-28T00:58:30.016Z,0.00
2018-11-28T00:59:29.989Z,0.00
2018-11-28T01:00:30.031Z,0.00
2018-11-28T01:01:29.960Z,0.00
2018-11-28T01:02:29.925Z,0.00
2018-11-28T01:03:29.899Z,0.00
2018-11-28T01:04:29.881Z,0.00
2018-11-28T01:05:29.861Z,0.00
2018-11-28T01:06:29.852Z,0.00
2018-11-28T01:07:29.826Z,0.00
2018-11-28T01:08:29.799Z,0.00
2018-11-28T01:09:29.763Z,0.00
2018-11-28T01:10:29.742Z,0.00
2018-11-28T01:11:29.717Z,0.00
2018-11-28T01:12:29.696Z,0.00
2018-11-28T01:13:29.688Z,0.00
2018-11-28T01:14:29.733Z,0.00
2018-11-28T01:15:29.632Z,0.00
2018-11-28T01:16:29.621Z,0.00
2018-11-28T01:17:29.586Z,0.00
2018-11-28T01:18:29.576Z,0.00
2018-11-28T01:19:29.539Z,0.00
2018-11-28T01:20:29.512Z,0.00
2018-11-28T01:21:29.489Z,0.00
2018-11-28T01:22:29.464Z,0.00
2018-11-28T01:23:29.459Z,0.00
2018-11-28T01:24:29.419Z,0.00
2018-11-28T01:25:29.393Z,0.00
2018-11-28T01:26:29.373Z,0.00
2018-11-28T01:27:29.356Z,0.00
2018-11-28T01:28:29.334Z,0.00
2018-11-28T01:29:29.326Z,0.00
2018-11-28T01:30:29.285Z,0.00
2018-11-28T01:31:29.255Z,0.00
2018-11-28T01:32:29.235Z,0.00
2018-11-28T01:33:29.224Z,0.00
2018-11-28T01:34:29.186Z,0.00
2018-11-28T01:35:29.179Z,0.00
2018-11-28T01:36:29.144Z,0.00
2018-11-28T01:37:29.120Z,0.00
2018-11-28T01:38:29.144Z,0.00
2018-11-28T01:39:29.068Z,0.00
2018-11-28T01:40:29.066Z,0.00
2018-11-28T01:41:29.030Z,0.00
2018-11-28T01:42:29.002Z,0.00
2018-11-28T01:43:28.983Z,0.00
2018-11-28T01:44:28.954Z,0.00
2018-11-28T01:45:28.950Z,0.00
2018-11-28T01:46:28.909Z,0.00
2018-11-28T01:47:28.890Z,0.00
2018-11-28T01:48:28.862Z,0.00
2018-11-28T01:49:28.840Z,0.00
2018-11-28T01:50:28.835Z,0.00
2018-11-28T01:51:28.796Z,0.00
2018-11-28T01:52:28.773Z,0.00
2018-11-28T01:53:28.755Z,0.00
2018-11-28T01:54:28.739Z,0.00
2018-11-28T01:55:28.722Z,0.00
2018-11-28T01:56:28.683Z,0.00
2018-11-28T01:57:28.662Z,0.00
2018-11-28T01:58:28.637Z,0.00
2018-11-28T01:59:28.614Z,0.00
2018-11-28T02:00:28.606Z,0.00
2018-11-28T02:01:28.581Z,0.00
2018-11-28T02:02:28.546Z,0.00
2018-11-28T02:03:28.521Z,0.00
2018-11-28T02:04:28.500Z,0.00
2018-11-28T02:05:28.494Z,0.00
2018-11-28T02:06:28.447Z,0.00
2018-11-28T02:07:28.431Z,0.00
2018-11-28T02:08:28.409Z,0.00
2018-11-28T02:09:28.483Z,0.00
2018-11-28T02:10:28.357Z,0.00
2018-11-28T02:11:28.349Z,0.00
2018-11-28T02:12:28.318Z,0.00
2018-11-28T02:13:28.292Z,0.00
2018-11-28T02:14:28.268Z,0.00
2018-11-28T02:15:28.246Z,0.00
2018-11-28T02:16:28.250Z,0.00
2018-11-28T02:17:28.193Z,0.00
2018-11-28T02:18:28.179Z,0.00
2018-11-28T02:19:28.153Z,0.00
2018-11-28T02:20:28.127Z,0.00
2018-11-28T02:21:28.121Z,0.00
2018-11-28T02:22:28.090Z,0.00
2018-11-28T02:23:28.081Z,0.00
2018-11-28T02:24:28.039Z,0.00
2018-11-28T02:25:28.020Z,0.00
2018-11-28T02:26:27.999Z,0.00
2018-11-28T02:27:27.970Z,0.00
2018-11-28T02:28:27.967Z,0.00
2018-11-28T02:29:27.922Z,0.00
2018-11-28T02:30:27.916Z,0.00
2018-11-28T02:31:27.879Z,0.00
2018-11-28T02:32:27.877Z,0.00
2018-11-28T02:33:27.849Z,0.00
2018-11-28T02:34:27.806Z,0.00
2018-11-28T02:35:27.810Z,0.00
2018-11-28T02:36:27.785Z,0.00
2018-11-28T02:37:27.736Z,0.00
2018-11-28T02:38:27.732Z,0.00
2018-11-28T02:39:27.701Z,0.00
2018-11-28T02:40:27.681Z,0.00
2018-11-28T02:41:27.649Z,0.00
2018-11-28T02:42:27.626Z,0.00
2018-11-28T02:43:27.603Z,0.00
2018-11-28T02:44:27.598Z,0.00
2018-11-28T02:45:27.562Z,0.00
2018-11-28T02:46:27.547Z,0.00
2018-11-28T02:47:27.513Z,0.00
2018-11-28T02:48:27.488Z,0.00
2018-11-28T02:49:27.475Z,0.00
2018-11-28T02:50:27.471Z,0.00
2018-11-28T02:51:27.431Z,0.00
2018-11-28T02:52:27.402Z,0.00
2018-11-28T02:53:27.380Z,0.00
2018-11-28T02:54:27.350Z,0.00
2018-11-28T02:55:27.344Z,0.00
2018-11-28T02:56:27.306Z,0.00
2018-11-28T02:57:27.285Z,0.00
2018-11-28T02:58:27.263Z,0.00
2018-11-28T02:59:27.237Z,0.00
2018-11-28T03:00:27.240Z,0.00
2018-11-28T03:01:27.190Z,0.00
2018-11-28T03:02:27.170Z,0.00
2018-11-28T03:03:27.146Z,0.00
2018-11-28T03:04:27.124Z,0.00
2018-11-28T03:05:27.107Z,0.00
2018-11-28T03:06:27.115Z,0.00
2018-11-28T03:07:27.055Z,0.00
2018-11-28T03:08:27.032Z,0.00
2018-11-28T03:09:27.012Z,0.00
2018-11-28T03:10:27.018Z,0.00
2018-11-28T03:11:26.978Z,0.00
2018-11-28T03:12:26.937Z,0.00
2018-11-28T03:13:26.913Z,0.00
2018-11-28T03:14:26.900Z,0.00
2018-11-28T03:15:26.873Z,0.00
2018-11-28T03:16:26.867Z,0.00
2018-11-28T03:17:26.831Z,0.00
2018-11-28T03:18:26.802Z,0.00
2018-11-28T03:19:26.781Z,0.00
2018-11-28T03:20:26.759Z,0.00
2018-11-28T03:21:26.821Z,0.00
2018-11-28T03:22:26.712Z,0.00
2018-11-28T03:23:26.687Z,0.00
2018-11-28T03:24:26.665Z,0.00
2018-11-28T03:25:26.642Z,0.00
2018-11-28T03:26:26.637Z,0.00
2018-11-28T03:27:26.614Z,0.00
2018-11-28T03:28:26.570Z,0.00
2018-11-28T03:29:26.549Z,0.00
2018-11-28T03:30:26.535Z,0.00
2018-11-28T03:31:26.502Z,0.00
2018-11-28T03:32:26.513Z,0.00
2018-11-28T03:33:26.476Z,0.00
2018-11-28T03:34:26.437Z,0.00
2018-11-28T03:35:26.415Z,0.00
2018-11-28T03:36:26.393Z,0.00
2018-11-28T03:37:26.369Z,0.00
2018-11-28T03:38:26.367Z,0.00
2018-11-28T03:39:26.322Z,0.00
2018-11-28T03:40:26.301Z,0.00
2018-11-28T03:41:26.287Z,0.00
2018-11-28T03:42:26.255Z,0.00
2018-11-28T03:43:26.252Z,0.00
2018-11-28T03:44:26.212Z,0.00
2018-11-28T03:45:26.209Z,0.00
2018-11-28T03:46:26.167Z,0.00
2018-11-28T03:47:27.056Z,0.00
2018-11-28T03:48:26.132Z,0.00
2018-11-28T03:49:26.096Z,0.00
2018-11-28T03:50:26.076Z,0.00
2018-11-28T03:51:26.063Z,0.00
2018-11-28T03:52:26.028Z,0.00
2018-11-28T03:53:26.009Z,0.00
2018-11-28T03:54:26.000Z,0.00
2018-11-28T03:55:25.978Z,0.00
2018-11-28T03:56:25.952Z,0.00
2018-11-28T03:57:25.911Z,0.00
2018-11-28T03:58:25.890Z,0.00
2018-11-28T03:59:25.868Z,0.00
2018-11-28T04:00:26.004Z,0.00
2018-11-28T04:01:25.824Z,0.00
2018-11-28T04:02:25.805Z,0.00
2018-11-28T04:03:25.780Z,0.00
2018-11-28T04:04:25.757Z,0.00
2018-11-28T04:05:25.755Z,0.00
2018-11-28T04:06:25.717Z,0.00
2018-11-28T04:07:25.685Z,0.00
2018-11-28T04:08:25.665Z,0.00
2018-11-28T04:09:25.639Z,0.00
2018-11-28T04:10:25.631Z,0.00
2018-11-28T04:11:25.620Z,0.00
2018-11-28T04:12:25.571Z,0.00
2018-11-28T04:13:25.550Z,0.00
2018-11-28T04:14:25.531Z,0.00
2018-11-28T04:15:25.509Z,0.00
2018-11-28T04:16:25.500Z,0.00
2018-11-28T04:17:25.482Z,0.00
2018-11-28T04:18:25.444Z,0.00
2018-11-28T04:19:25.414Z,0.00
2018-11-28T04:20:25.396Z,0.00
2018-11-28T04:21:25.369Z,0.00
2018-11-28T04:22:25.361Z,0.00
2018-11-28T04:23:25.329Z,0.00
2018-11-28T04:24:25.309Z,0.00
2018-11-28T04:25:25.274Z,0.00
2018-11-28T04:26:25.254Z,0.00
2018-11-28T04:27:25.230Z,0.00
2018-11-28T04:28:25.240Z,0.00
2018-11-28T04:29:25.187Z,0.00
2018-11-28T04:30:25.166Z,0.00
2018-11-28T04:31:25.144Z,0.00
2018-11-28T04:32:25.120Z,0.00
2018-11-28T04:33:25.106Z,0.00
2018-11-28T04:34:25.098Z,0.00
2018-11-28T04:35:25.056Z,0.00
2018-11-28T04:36:25.030Z,0.00
2018-11-28T04:37:25.008Z,0.00
2018-11-28T04:38:25.003Z,0.00
2018-11-28T04:39:24.961Z,0.00
2018-11-28T04:40:24.938Z,0.00
2018-11-28T04:41:24.915Z,0.00
2018-11-28T04:42:24.899Z,0.00
2018-11-28T04:43:24.872Z,0.00
2018-11-28T04:44:24.869Z,0.00
2018-11-28T04:45:24.827Z,0.00
2018-11-28T04:46:24.802Z,0.00
2018-11-28T04:47:24.782Z,0.00
2018-11-28T04:48:24.753Z,0.00
2018-11-28T04:49:24.752Z,0.00
2018-11-28T04:50:24.759Z,0.00
2018-11-28T04:51:24.698Z,0.00
2018-11-28T04:52:24.670Z,0.00
2018-11-28T04:53:24.646Z,0.00
2018-11-28T04:54:24.622Z,0.00
2018-11-28T04:55:24.615Z,0.00
2018-11-28T04:56:24.584Z,0.00
2018-11-28T04:57:24.559Z,0.00
2018-11-28T04:58:24.534Z,0.00
2018-11-28T04:59:24.507Z,0.00
2018-11-28T05:00:24.510Z,0.00
2018-11-28T05:01:24.464Z,0.00
2018-11-28T05:02:24.440Z,0.00
2018-11-28T05:03:24.416Z,0.00
2018-11-28T05:04:24.403Z,0.00
2018-11-28T05:05:24.401Z,0.00
2018-11-28T05:06:24.346Z,0.00
2018-11-28T05:07:24.341Z,0.00
2018-11-28T05:08:24.302Z,0.00
2018-11-28T05:09:24.282Z,0.00
2018-11-28T05:10:24.282Z,0.00
2018-11-28T05:11:24.251Z,0.00
2018-11-28T05:12:24.221Z,0.00
2018-11-28T05:13:24.187Z,0.00
2018-11-28T05:14:24.184Z,0.00
2018-11-28T05:15:24.143Z,0.00
2018-11-28T05:16:24.140Z,0.00
2018-11-28T05:17:24.098Z,0.00
2018-11-28T05:18:24.077Z,0.00
2018-11-28T05:19:24.053Z,0.00
2018-11-28T05:20:24.029Z,0.00
2018-11-28T05:21:24.025Z,0.00
2018-11-28T05:22:23.985Z,0.00
2018-11-28T05:23:23.958Z,0.00
2018-11-28T05:24:23.940Z,0.00
2018-11-28T05:25:23.934Z,0.00
2018-11-28T05:26:23.897Z,0.00
2018-11-28T05:27:23.870Z,0.00
2018-11-28T05:28:23.867Z,0.00
2018-11-28T05:29:23.830Z,0.00
2018-11-28T05:30:23.815Z,0.00
2018-11-28T05:31:23.799Z,0.00
2018-11-28T05:32:23.758Z,0.00
2018-11-28T05:33:23.755Z,0.00
2018-11-28T05:34:23.716Z,0.00
2018-11-28T05:35:23.701Z,0.00
2018-11-28T05:36:23.690Z,0.00
2018-11-28T05:37:23.646Z,0.00
2018-11-28T05:38:23.626Z,0.00
2018-11-28T05:39:23.597Z,0.00
2018-11-28T05:40:23.582Z,0.00
2018-11-28T05:41:23.571Z,0.00
2018-11-28T05:42:23.533Z,0.00
2018-11-28T05:43:23.570Z,0.00
2018-11-28T05:44:23.496Z,0.00
2018-11-28T05:45:23.468Z,0.00
2018-11-28T05:46:23.465Z,0.00
2018-11-28T05:47:23.419Z,0.00
2018-11-28T05:48:23.394Z,0.00
2018-11-28T05:49:23.390Z,0.00
2018-11-28T05:50:23.356Z,0.00
2018-11-28T05:51:23.346Z,0.00
2018-11-28T05:52:23.303Z,0.00
2018-11-28T05:53:23.294Z,0.00
2018-11-28T05:54:23.263Z,0.00
2018-11-28T05:55:23.265Z,0.00
2018-11-28T05:56:23.233Z,0.00
2018-11-28T05:57:23.358Z,0.00
2018-11-28T05:58:23.191Z,0.00
2018-11-28T05:59:27.334Z,0.00
2018-11-28T06:00:23.125Z,0.00
2018-11-28T06:01:23.122Z,0.00
2018-11-28T06:02:23.081Z,0.00
2018-11-28T06:03:23.075Z,0.00
2018-11-28T06:04:23.036Z,0.00
2018-11-28T06:05:23.011Z,0.00
2018-11-28T06:06:22.994Z,0.00
2018-11-28T06:07:22.969Z,0.00
2018-11-28T06:08:22.971Z,0.00
2018-11-28T06:09:22.951Z,0.00
2018-11-28T06:10:22.947Z,0.00
2018-11-28T06:11:22.879Z,0.00
2018-11-28T06:12:22.888Z,0.00
2018-11-28T06:13:22.835Z,0.00
2018-11-28T06:14:22.811Z,0.00
2018-11-28T06:15:22.788Z,0.00
2018-11-28T06:16:22.765Z,0.00
2018-11-28T06:17:22.757Z,0.00
2018-11-28T06:18:22.721Z,0.00
2018-11-28T06:19:22.716Z,0.00
2018-11-28T06:20:22.676Z,0.00
2018-11-28T06:21:22.661Z,0.00
2018-11-28T06:22:22.641Z,0.00
2018-11-28T06:23:22.607Z,0.00
2018-11-28T06:24:22.607Z,0.00
2018-11-28T06:25:22.566Z,0.00
2018-11-28T06:26:22.547Z,0.00
2018-11-28T06:27:22.517Z,0.00
2018-11-28T06:28:22.496Z,0.00
2018-11-28T06:29:22.497Z,0.00
2018-11-28T06:30:22.455Z,0.00
2018-11-28T06:31:22.441Z,0.00
2018-11-28T06:32:22.409Z,0.00
2018-11-28T06:33:22.387Z,0.00
2018-11-28T06:34:22.361Z,0.00
2018-11-28T06:35:22.335Z,0.00
2018-11-28T06:36:22.332Z,0.00
2018-11-28T06:37:22.296Z,0.00
2018-11-28T06:38:22.268Z,0.00
2018-11-28T06:39:22.246Z,4.00
2018-11-28T06:40:24.293Z,4.00
2018-11-28T06:41:22.205Z,0.00
2018-11-28T06:42:22.181Z,0.00
2018-11-28T06:43:22.179Z,4.00
2018-11-28T06:44:22.132Z,4.00
2018-11-28T06:45:22.113Z,4.00
2018-11-28T06:46:22.088Z,4.00
2018-11-28T06:47:22.066Z,4.00
2018-11-28T06:48:22.061Z,8.00
2018-11-28T06:49:22.042Z,8.00
2018-11-28T06:50:21.998Z,8.00
2018-11-28T06:51:21.977Z,8.00
2018-11-28T06:52:22.007Z,12.00
2018-11-28T06:53:21.955Z,16.00
2018-11-28T06:54:21.910Z,16.00
2018-11-28T06:55:21.939Z,16.00
2018-11-28T06:56:21.882Z,20.00
2018-11-28T06:57:21.841Z,24.00
2018-11-28T06:58:21.818Z,28.00
2018-11-28T06:59:21.795Z,32.00
2018-11-28T07:00:21.784Z,36.00
2018-11-28T07:01:21.747Z,40.00
2018-11-28T07:02:21.752Z,44.00
2018-11-28T07:03:21.706Z,48.00
2018-11-28T07:04:21.729Z,56.00
2018-11-28T07:05:21.691Z,60.00
2018-11-28T07:06:21.644Z,60.00
2018-11-28T07:07:21.616Z,64.00
2018-11-28T07:08:21.600Z,68.00
2018-11-28T07:09:21.573Z,72.00
2018-11-28T07:10:21.574Z,80.00
2018-11-28T07:11:21.522Z,88.00
2018-11-28T07:12:21.523Z,92.00
2018-11-28T07:13:21.485Z,100.00
2018-11-28T07:14:21.468Z,104.00
2018-11-28T07:15:21.438Z,112.00
2018-11-28T07:16:21.685Z,116.00
2018-11-28T07:17:21.391Z,128.00
2018-11-28T07:18:21.374Z,136.00
2018-11-28T07:19:21.357Z,152.00
2018-11-28T07:20:21.327Z,136.00
2018-11-28T07:21:21.324Z,180.00
2018-11-28T07:22:21.283Z,196.00
2018-11-28T07:23:21.257Z,208.00
2018-11-28T07:24:21.236Z,224.00
2018-11-28T07:25:21.214Z,240.00
2018-11-28T07:26:21.218Z,252.00
2018-11-28T07:27:21.169Z,272.00
2018-11-28T07:28:21.220Z,292.00
2018-11-28T07:29:21.133Z,312.00
2018-11-28T07:30:21.127Z,324.00
2018-11-28T07:31:21.094Z,344.00
2018-11-28T07:32:21.054Z,352.00
2018-11-28T07:33:21.043Z,364.00
2018-11-28T07:34:21.013Z,392.00
2018-11-28T07:35:21.009Z,400.00
2018-11-28T07:36:20.991Z,420.00
2018-11-28T07:37:20.944Z,424.00
2018-11-28T07:38:20.937Z,444.00
2018-11-28T07:39:20.909Z,440.00
2018-11-28T07:40:20.969Z,476.00
2018-11-28T07:41:21.577Z,480.00
2018-11-28T07:42:20.838Z,472.00
2018-11-28T07:43:20.826Z,500.00
2018-11-28T07:44:20.802Z,500.00
2018-11-28T07:45:20.765Z,504.00
2018-11-28T07:46:20.738Z,508.00
2018-11-28T07:47:20.716Z,532.00
2018-11-28T07:48:20.694Z,480.00
2018-11-28T07:49:20.692Z,500.00
2018-11-28T07:50:20.659Z,520.00
2018-11-28T07:51:20.628Z,536.00
2018-11-28T07:52:20.612Z,524.00
2018-11-28T07:53:20.605Z,520.00
2018-11-28T07:54:20.564Z,552.00
2018-11-28T07:55:20.563Z,568.00
2018-11-28T07:56:20.517Z,572.00
2018-11-28T07:57:20.514Z,580.00
2018-11-28T07:58:20.482Z,560.00
2018-11-28T07:59:20.467Z,548.00
2018-11-28T08:00:20.437Z,544.00
2018-11-28T08:01:20.404Z,556.00
2018-11-28T08:02:20.391Z,472.00
2018-11-28T08:03:20.362Z,472.00
2018-11-28T08:04:20.642Z,432.00
2018-11-28T08:05:20.339Z,524.00
2018-11-28T08:06:20.301Z,532.00
2018-11-28T08:07:20.279Z,520.00
2018-11-28T08:08:20.280Z,516.00
2018-11-28T08:09:20.241Z,568.00
2018-11-28T08:10:20.221Z,584.00
2018-11-28T08:11:20.195Z,600.00
2018-11-28T08:12:20.165Z,620.00
2018-11-28T08:13:20.139Z,632.00
2018-11-28T08:14:20.139Z,664.00
2018-11-28T08:15:20.096Z,680.00
2018-11-28T08:16:20.078Z,720.00
2018-11-28T08:17:20.056Z,756.00
2018-11-28T08:18:20.039Z,772.00
2018-11-28T08:19:24.029Z,792.00
2018-11-28T08:20:19.986Z,812.00
2018-11-28T08:21:19.959Z,828.00
2018-11-28T08:22:19.941Z,832.00
2018-11-28T08:23:19.922Z,840.00
2018-11-28T08:24:19.898Z,872.00
2018-11-28T08:25:19.889Z,928.00
2018-11-28T08:26:19.869Z,960.00
2018-11-28T08:27:19.847Z,964.00
2018-11-28T08:28:19.827Z,940.00
2018-11-28T08:29:19.786Z,900.00
2018-11-28T08:30:19.935Z,840.00
2018-11-28T08:31:19.761Z,808.00
2018-11-28T08:32:19.723Z,808.00
2018-11-28T08:33:19.694Z,788.00
2018-11-28T08:34:19.674Z,792.00
2018-11-28T08:35:19.651Z,792.00
2018-11-28T08:36:19.649Z,824.00
2018-11-28T08:37:19.607Z,808.00
2018-11-28T08:38:19.596Z,824.00
2018-11-28T08:39:19.565Z,856.00
2018-11-28T08:40:19.543Z,828.00
2018-11-28T08:41:19.534Z,908.00
2018-11-28T08:42:19.515Z,940.00
2018-11-28T08:43:19.491Z,964.00
2018-11-28T08:44:19.460Z,980.00
2018-11-28T08:45:19.546Z,1052.00
2018-11-28T08:46:19.410Z,1140.00
2018-11-28T08:47:19.388Z,1144.00
2018-11-28T08:48:19.396Z,1076.00
2018-11-28T08:49:19.357Z,1040.00
2018-11-28T08:50:19.370Z,1064.00
2018-11-28T08:51:19.325Z,1120.00
2018-11-28T08:52:19.276Z,1216.00
2018-11-28T08:53:19.280Z,1272.00
2018-11-28T08:54:19.234Z,1332.00
2018-11-28T08:55:19.213Z,1460.00
2018-11-28T08:56:19.211Z,1320.00
2018-11-28T08:57:19.170Z,1412.00
2018-11-28T08:58:19.164Z,1676.00
2018-11-28T08:59:19.151Z,1708.00
2018-11-28T09:00:19.119Z,1732.00
2018-11-28T09:01:19.078Z,1580.00
2018-11-28T09:02:19.073Z,1460.00
2018-11-28T09:03:33.184Z,1324.00
2018-11-28T09:04:19.013Z,1524.00
2018-11-28T09:05:18.994Z,1640.00
2018-11-28T09:06:18.971Z,1760.00
2018-11-28T09:07:18.966Z,1796.00
2018-11-28T09:08:18.927Z,1876.00
2018-11-28T09:09:18.907Z,1928.00
2018-11-28T09:10:18.884Z,1992.00
2018-11-28T09:11:18.882Z,2024.00
2018-11-28T09:12:18.840Z,2080.00
2018-11-28T09:13:18.826Z,1944.00
2018-11-28T09:14:18.795Z,1988.00
2018-11-28T09:15:18.821Z,1968.00
2018-11-28T09:16:18.755Z,1940.00
2018-11-28T09:17:18.750Z,2060.00
2018-11-28T09:18:18.712Z,1484.00
2018-11-28T09:19:18.696Z,2092.00
2018-11-28T09:20:18.695Z,2092.00
2018-11-28T09:21:18.639Z,2252.00
2018-11-28T09:22:18.623Z,2284.00
2018-11-28T09:23:18.629Z,2440.00
2018-11-28T09:24:18.578Z,1728.00
2018-11-28T09:25:18.575Z,2540.00
2018-11-28T09:26:18.536Z,2508.00
2018-11-28T09:27:18.559Z,2508.00
2018-11-28T09:28:18.491Z,2404.00
2018-11-28T09:29:18.479Z,2448.00
2018-11-28T09:30:18.473Z,2416.00
2018-11-28T09:31:18.424Z,2352.00
2018-11-28T09:32:18.407Z,2356.00
2018-11-28T09:33:18.381Z,2524.00
2018-11-28T09:34:18.368Z,2288.00
2018-11-28T09:35:18.364Z,2368.00
2018-11-28T09:36:18.316Z,2416.00
2018-11-28T09:37:18.300Z,2472.00
2018-11-28T09:38:18.279Z,2256.00
2018-11-28T09:39:18.281Z,2404.00
2018-11-28T09:40:18.226Z,2200.00
2018-11-28T09:41:18.223Z,2420.00
2018-11-28T09:42:18.274Z,2420.00
2018-11-28T09:43:18.163Z,2408.00
2018-11-28T09:44:18.137Z,2484.00
2018-11-28T09:45:18.121Z,2472.00
2018-11-28T09:46:18.118Z,2520.00
2018-11-28T09:47:18.077Z,2592.00
2018-11-28T09:48:18.054Z,2768.00
2018-11-28T09:49:18.049Z,2584.00
2018-11-28T09:50:18.029Z,2516.00
2018-11-28T09:51:18.004Z,2684.00
2018-11-28T09:52:17.985Z,2680.00
2018-11-28T09:53:17.949Z,2644.00
2018-11-28T09:54:17.923Z,2876.00
2018-11-28T09:55:17.905Z,2676.00
2018-11-28T09:56:17.888Z,2652.00
2018-11-28T09:57:17.860Z,2704.00
2018-11-28T09:58:17.861Z,2672.00
2018-11-28T09:59:17.816Z,2632.00
2018-11-28T10:00:17.797Z,2528.00
2018-11-28T10:01:17.793Z,2624.00
2018-11-28T10:02:17.770Z,2632.00
2018-11-28T10:03:17.750Z,2564.00
2018-11-28T10:04:17.712Z,2672.00
2018-11-28T10:05:17.685Z,2428.00
2018-11-28T10:06:17.666Z,2624.00
2018-11-28T10:07:17.647Z,2504.00
2018-11-28T10:08:17.643Z,2512.00
2018-11-28T10:09:17.603Z,2484.00
2018-11-28T10:10:17.592Z,2380.00
2018-11-28T10:11:17.560Z,2388.00
2018-11-28T10:12:17.543Z,2280.00
2018-11-28T10:13:17.538Z,2372.00
2018-11-28T10:14:17.510Z,2396.00
2018-11-28T10:15:17.489Z,2516.00
2018-11-28T10:16:17.453Z,2752.00
2018-11-28T10:17:17.436Z,2700.00
2018-11-28T10:18:17.438Z,2736.00
2018-11-28T10:19:17.390Z,2748.00
2018-11-28T10:20:17.373Z,2664.00
2018-11-28T10:21:17.354Z,2692.00
2018-11-28T10:22:17.321Z,2680.00
2018-11-28T10:23:17.298Z,2264.00
2018-11-28T10:24:17.307Z,2604.00
2018-11-28T10:25:17.258Z,2592.00
2018-11-28T10:26:17.238Z,2600.00
2018-11-28T10:27:17.215Z,2648.00
2018-11-28T10:28:17.193Z,2604.00
2018-11-28T10:29:17.176Z,2652.00
2018-11-28T10:30:17.174Z,2680.00
2018-11-28T10:31:17.131Z,2760.00
2018-11-28T10:32:17.106Z,2944.00
2018-11-28T10:33:17.110Z,2748.00
2018-11-28T10:34:17.067Z,2888.00
2018-11-28T10:35:17.048Z,2064.00
2018-11-28T10:36:17.033Z,2292.00
2018-11-28T10:37:17.002Z,2888.00
2018-11-28T10:38:16.981Z,2968.00
2018-11-28T10:39:16.957Z,2880.00
2018-11-28T10:40:16.955Z,3072.00
2018-11-28T10:41:16.934Z,2836.00
2018-11-28T10:42:16.896Z,2800.00
2018-11-28T10:43:16.876Z,2852.00
2018-11-28T10:44:16.860Z,2892.00
2018-11-28T10:45:16.849Z,3016.00
2018-11-28T10:46:16.825Z,3044.00
2018-11-28T10:47:16.804Z,3060.00
2018-11-28T10:48:16.761Z,3088.00
2018-11-28T10:49:16.756Z,3128.00
2018-11-28T10:50:16.729Z,3188.00
2018-11-28T10:51:16.700Z,3032.00
2018-11-28T10:52:16.714Z,3064.00
2018-11-28T10:53:16.718Z,3172.00
2018-11-28T10:54:16.650Z,3104.00
2018-11-28T10:55:16.621Z,3212.00
2018-11-28T10:56:16.598Z,3308.00
2018-11-28T10:57:16.574Z,3284.00
2018-11-28T10:58:16.549Z,3440.00
2018-11-28T10:59:16.559Z,3452.00
2018-11-28T11:00:16.514Z,3616.00
2018-11-28T11:01:16.487Z,3884.00
2018-11-28T11:02:16.464Z,3840.00
2018-11-28T11:03:16.449Z,3888.00
2018-11-28T11:04:16.438Z,3908.00
2018-11-28T11:05:16.424Z,4004.00
2018-11-28T11:06:16.394Z,4076.00
2018-11-28T11:07:16.363Z,4128.00
2018-11-28T11:08:16.368Z,4072.00
2018-11-28T11:09:16.325Z,3436.00
2018-11-28T11:10:16.306Z,3652.00
2018-11-28T11:11:16.308Z,3680.00
2018-11-28T11:12:17.180Z,3520.00
2018-11-28T11:13:16.293Z,3560.00
2018-11-28T11:14:16.719Z,3328.00
2018-11-28T11:15:16.252Z,3368.00
2018-11-28T11:16:16.170Z,3208.00
2018-11-28T11:17:16.278Z,3184.00
2018-11-28T11:18:16.227Z,3204.00
2018-11-28T11:19:16.716Z,2992.00
2018-11-28T11:20:16.217Z,3256.00
2018-11-28T11:21:16.635Z,3264.00
2018-11-28T11:22:16.051Z,3276.00
2018-11-28T11:23:16.019Z,3248.00
2018-11-28T11:24:16.046Z,3284.00
2018-11-28T11:25:16.024Z,3224.00
2018-11-28T11:26:15.974Z,3252.00
2018-11-28T11:27:15.934Z,3168.00
2018-11-28T11:28:15.917Z,3276.00
2018-11-28T11:29:15.898Z,3364.00
2018-11-28T11:30:15.873Z,3440.00
2018-11-28T11:31:16.036Z,3500.00
2018-11-28T11:32:15.828Z,3576.00
2018-11-28T11:33:15.897Z,3544.00
2018-11-28T11:34:15.830Z,3652.00
2018-11-28T11:35:15.774Z,3492.00
2018-11-28T11:36:15.766Z,3656.00
2018-11-28T11:37:15.729Z,3808.00
2018-11-28T11:38:15.702Z,3936.00
2018-11-28T11:39:15.694Z,3800.00
2018-11-28T11:40:15.668Z,4040.00
2018-11-28T11:41:15.653Z,4060.00
2018-11-28T11:42:15.647Z,3964.00
2018-11-28T11:43:15.600Z,3772.00
2018-11-28T11:44:15.576Z,4272.00
2018-11-28T11:45:15.674Z,4056.00
2018-11-28T11:46:15.542Z,3996.00
2018-11-28T11:47:15.658Z,3384.00
2018-11-28T11:48:15.515Z,4540.00
2018-11-28T11:49:15.481Z,3808.00
2018-11-28T11:50:15.453Z,4428.00
2018-11-28T11:51:15.434Z,4436.00
2018-11-28T11:52:15.415Z,4264.00
2018-11-28T11:53:15.409Z,4384.00
2018-11-28T11:54:15.372Z,4360.00
2018-11-28T11:55:15.390Z,4416.00
2018-11-28T11:56:15.333Z,4352.00
2018-11-28T11:57:15.328Z,4296.00
2018-11-28T11:58:15.304Z,4228.00
2018-11-28T11:59:15.269Z,4336.00
2018-11-28T12:00:15.248Z,4440.00
2018-11-28T12:01:15.275Z,4180.00
2018-11-28T12:02:15.214Z,3984.00
2018-11-28T12:03:15.205Z,4000.00
2018-11-28T12:04:15.160Z,3800.00
2018-11-28T12:05:15.193Z,3816.00
2018-11-28T12:06:15.119Z,3680.00
2018-11-28T12:07:15.102Z,3836.00
2018-11-28T12:08:15.099Z,3784.00
2018-11-28T12:10:57.082Z,3820.00
2018-11-28T12:11:57.062Z,3808.00
2018-11-28T12:12:57.034Z,3712.00
2018-11-28T12:13:57.035Z,3864.00
2018-11-28T12:14:56.998Z,3764.00
2018-11-28T12:15:57.031Z,3980.00
2018-11-28T12:16:56.955Z,4136.00
2018-11-28T12:17:56.946Z,4164.00
2018-11-28T12:18:56.936Z,4232.00
2018-11-28T12:19:56.894Z,4112.00
2018-11-28T12:20:56.872Z,4048.00
2018-11-28T12:21:56.854Z,4116.00
2018-11-28T12:22:56.831Z,4084.00
2018-11-28T12:23:56.846Z,4156.00
2018-11-28T12:24:56.807Z,4276.00
2018-11-28T12:25:56.769Z,4376.00
2018-11-28T12:26:56.751Z,4688.00
2018-11-28T12:27:56.775Z,4804.00
2018-11-28T12:28:56.706Z,5028.00
2018-11-28T12:29:56.703Z,4928.00
2018-11-28T12:30:56.677Z,4760.00
2018-11-28T12:31:56.648Z,4736.00
2018-11-28T12:32:56.624Z,4472.00
2018-11-28T12:33:56.603Z,4452.00
2018-11-28T12:34:56.597Z,4164.00
2018-11-28T12:35:56.560Z,4276.00
2018-11-28T12:36:56.547Z,4032.00
2018-11-28T12:37:56.535Z,3932.00
2018-11-28T12:38:56.497Z,3768.00
2018-11-28T12:39:56.483Z,3684.00
2018-11-28T12:40:56.480Z,3340.00
2018-11-28T12:41:56.449Z,3352.00
2018-11-28T12:42:56.417Z,3700.00
2018-11-28T12:43:56.399Z,3332.00
2018-11-28T12:44:56.381Z,3436.00
2018-11-28T12:45:56.379Z,3288.00
2018-11-28T12:46:56.351Z,3708.00
2018-11-28T12:47:56.314Z,3572.00
2018-11-28T12:48:56.295Z,3436.00